Time;durP1;ratioP1;P1;durP2;ratioP2;P2;SDS_P1;SDS_P2;PMS_P1;PMS_P2;Temp;Humidity;BMP_temperature;BMP_pressure;BME280_temperature;BME280_humidity;BME280_pressure;Samples;Min_cycle;Max_cycle;Signal;HPM_P1;HPM_P2
2021/11/16 00:00:36;;;;;;;25.65;15.52;;;4.90;90.60;;;;;;4998761;28;20118;-75
2021/11/16 00:03:01;;;;;;;27.85;15.15;;;4.90;90.30;;;;;;4995210;28;20081;-74
2021/11/16 00:05:27;;;;;;;25.60;14.80;;;4.90;90.30;;;;;;5001115;28;20102;-74
2021/11/16 00:07:52;;;;;;;25.55;15.70;;;5.00;90.50;;;;;;4999131;28;20050;-74
2021/11/16 00:10:19;;;;;;;26.67;15.52;;;4.90;90.70;;;;;;4999733;28;20037;-74
2021/11/16 00:12:45;;;;;;;29.02;15.98;;;5.00;90.90;;;;;;4998298;28;20040;-74
2021/11/16 00:15:10;;;;;;;27.40;15.30;;;4.90;90.50;;;;;;4996248;28;20432;-74
2021/11/16 00:17:37;;;;;;;27.95;16.00;;;4.90;90.50;;;;;;4999504;28;20049;-74
2021/11/16 00:20:05;;;;;;;27.88;15.70;;;4.90;90.80;;;;;;4999847;28;20590;-74
2021/11/16 00:22:31;;;;;;;28.33;14.15;;;5.00;90.70;;;;;;4999320;28;20459;-74
2021/11/16 00:27:25;;;;;;;26.40;15.32;;;4.90;90.80;;;;;;4998229;28;20513;-74
2021/11/16 00:29:50;;;;;;;25.10;14.38;;;4.80;90.70;;;;;;4997951;28;20034;-73
2021/11/16 00:32:16;;;;;;;22.45;13.68;;;4.90;90.70;;;;;;4988784;28;20030;-75
2021/11/16 00:34:41;;;;;;;27.90;15.10;;;4.90;90.90;;;;;;5002179;28;20071;-74
2021/11/16 00:37:07;;;;;;;24.40;15.30;;;4.90;90.70;;;;;;4974929;28;20398;-75
2021/11/16 00:39:32;;;;;;;24.05;15.13;;;4.90;90.70;;;;;;5001622;28;20441;-75
2021/11/16 00:41:58;;;;;;;25.00;14.35;;;4.80;90.50;;;;;;5003203;28;20096;-75
2021/11/16 00:44:23;;;;;;;26.33;14.57;;;4.80;90.40;;;;;;4997305;28;20036;-74
2021/11/16 00:46:49;;;;;;;23.90;15.07;;;4.80;90.50;;;;;;5000321;28;20047;-74
2021/11/16 00:49:14;;;;;;;24.13;14.40;;;4.80;90.80;;;;;;5002524;28;21223;-74
2021/11/16 00:51:41;;;;;;;23.33;13.93;;;4.80;90.50;;;;;;5008363;28;20072;-74
2021/11/16 00:54:07;;;;;;;23.10;14.35;;;4.80;90.70;;;;;;4999680;28;20045;-75
2021/11/16 00:56:33;;;;;;;28.83;14.38;;;4.80;90.70;;;;;;5007561;28;20030;-74
2021/11/16 00:58:58;;;;;;;23.50;14.65;;;4.80;90.60;;;;;;5002608;28;20060;-74
2021/11/16 01:01:24;;;;;;;24.83;15.63;;;4.80;90.50;;;;;;5003057;28;20388;-74
2021/11/16 01:03:49;;;;;;;28.48;15.50;;;4.80;90.70;;;;;;4997317;28;20038;-74
2021/11/16 01:06:15;;;;;;;24.85;14.88;;;4.80;90.50;;;;;;5004102;28;20151;-74
2021/11/16 01:08:40;;;;;;;22.77;14.38;;;4.80;90.60;;;;;;4995232;28;20052;-75
2021/11/16 01:11:06;;;;;;;23.63;13.43;;;4.80;90.40;;;;;;5009187;28;20516;-73
2021/11/16 01:13:31;;;;;;;26.05;15.65;;;4.80;90.50;;;;;;5004363;28;20030;-74
2021/11/16 01:15:57;;;;;;;24.75;14.05;;;4.80;90.50;;;;;;5002323;28;20037;-75
2021/11/16 01:18:26;;;;;;;30.83;16.15;;;4.80;90.40;;;;;;4999897;28;20030;-74
2021/11/16 01:20:52;;;;;;;23.83;13.98;;;4.80;90.60;;;;;;5002329;28;20091;-74
2021/11/16 01:23:20;;;;;;;25.00;14.65;;;4.80;90.60;;;;;;5005712;28;20059;-74
2021/11/16 01:25:47;;;;;;;24.80;15.82;;;4.80;90.70;;;;;;5011494;28;20067;-75
2021/11/16 01:28:16;;;;;;;28.15;16.02;;;4.80;90.70;;;;;;5019091;28;20395;-74
2021/11/16 01:30:49;;;;;;;24.98;14.48;;;4.80;90.90;;;;;;5001113;28;20036;-74
2021/11/16 01:33:20;;;;;;;25.13;15.10;;;4.70;90.60;;;;;;5001739;28;20109;-73
2021/11/16 01:35:47;;;;;;;25.45;14.45;;;4.80;90.90;;;;;;4977910;28;20790;-73
2021/11/16 01:38:17;;;;;;;24.23;15.23;;;4.70;91.00;;;;;;5002824;28;20276;-74
2021/11/16 01:40:44;;;;;;;27.38;14.80;;;4.80;90.40;;;;;;4997581;28;20030;-74
2021/11/16 01:43:10;;;;;;;27.30;15.80;;;4.80;90.80;;;;;;5000215;28;20101;-74
2021/11/16 01:45:37;;;;;;;26.13;14.95;;;4.80;90.90;;;;;;4999745;28;20137;-73
2021/11/16 01:48:04;;;;;;;24.95;15.32;;;4.80;90.90;;;;;;4997607;28;20162;-74
2021/11/16 01:50:29;;;;;;;27.75;15.27;;;4.70;91.00;;;;;;4999725;28;20034;-74
2021/11/16 01:52:55;;;;;;;23.60;14.38;;;4.80;91.00;;;;;;4994550;28;20321;-73
2021/11/16 01:55:22;;;;;;;21.83;13.57;;;4.70;91.20;;;;;;4996885;28;20159;-74
2021/11/16 01:57:50;;;;;;;27.42;15.07;;;4.70;91.20;;;;;;5000202;28;20117;-74
2021/11/16 02:00:26;;;;;;;28.77;14.90;;;4.70;91.20;;;;;;5000363;28;20049;-74
2021/11/16 02:02:52;;;;;;;26.13;15.18;;;4.80;91.30;;;;;;4997826;28;20033;-74
2021/11/16 02:05:18;;;;;;;28.63;15.88;;;4.80;91.30;;;;;;5000364;28;20084;-74
2021/11/16 02:07:47;;;;;;;26.13;14.93;;;4.70;91.20;;;;;;5002323;28;20026;-74
2021/11/16 02:10:13;;;;;;;27.08;14.80;;;4.70;90.80;;;;;;4999273;28;20061;-74
2021/11/16 02:12:39;;;;;;;26.83;14.90;;;4.70;90.80;;;;;;4999235;28;20033;-73
2021/11/16 02:15:09;;;;;;;28.73;15.27;;;4.70;91.00;;;;;;4999833;28;20462;-74
2021/11/16 02:17:36;;;;;;;28.20;14.97;;;4.80;91.10;;;;;;4998898;28;20310;-74
2021/11/16 02:20:04;;;;;;;28.17;15.82;;;4.70;91.40;;;;;;5003472;28;20157;-74
2021/11/16 02:22:30;;;;;;;24.52;14.95;;;4.70;91.40;;;;;;4999732;28;20021;-74
2021/11/16 02:24:56;;;;;;;30.63;16.23;;;4.70;91.20;;;;;;4999703;28;20502;-74
2021/11/16 02:27:21;;;;;;;27.77;15.80;;;4.70;90.90;;;;;;4995701;28;20034;-74
2021/11/16 02:29:47;;;;;;;25.77;15.57;;;4.70;91.20;;;;;;5000122;28;20153;-74
2021/11/16 02:32:13;;;;;;;27.27;15.10;;;4.80;91.20;;;;;;4993126;28;20033;-74
2021/11/16 02:34:38;;;;;;;28.60;16.13;;;4.70;91.20;;;;;;5001203;28;20104;-74
2021/11/16 02:37:04;;;;;;;29.45;16.63;;;4.80;91.20;;;;;;4973532;28;20037;-74
2021/11/16 02:39:30;;;;;;;28.73;15.55;;;4.70;90.60;;;;;;4997521;28;20034;-74
2021/11/16 02:41:55;;;;;;;28.15;15.43;;;4.70;91.30;;;;;;5000293;28;20022;-74
2021/11/16 02:44:23;;;;;;;29.58;14.98;;;4.80;91.20;;;;;;5002919;28;20105;-74
2021/11/16 02:46:51;;;;;;;29.40;15.35;;;4.70;90.90;;;;;;5002148;28;20495;-74
2021/11/16 02:49:17;;;;;;;31.00;15.60;;;4.70;91.00;;;;;;5000963;28;20344;-74
2021/11/16 02:51:43;;;;;;;29.13;15.02;;;4.70;90.80;;;;;;4998922;28;20030;-74
2021/11/16 02:54:15;;;;;;;28.70;15.98;;;4.80;90.90;;;;;;4996322;28;20053;-74
2021/11/16 02:56:41;;;;;;;26.83;15.50;;;4.80;91.00;;;;;;5002130;28;20090;-74
2021/11/16 02:59:07;;;;;;;25.00;13.95;;;4.70;91.10;;;;;;5001968;28;20084;-74
2021/11/16 03:01:32;;;;;;;27.92;15.75;;;4.70;90.70;;;;;;4997173;28;20026;-73
2021/11/16 03:03:58;;;;;;;28.23;16.30;;;4.70;90.80;;;;;;5011470;28;20037;-74
2021/11/16 03:06:23;;;;;;;31.95;16.60;;;4.70;90.80;;;;;;4997780;28;20078;-74
2021/11/16 03:08:49;;;;;;;26.52;16.20;;;4.70;90.70;;;;;;5000400;28;20117;-74
2021/11/16 03:11:16;;;;;;;30.80;16.88;;;4.80;91.00;;;;;;5000605;28;20040;-74
2021/11/16 03:13:42;;;;;;;29.48;16.23;;;4.80;91.00;;;;;;4998896;28;20026;-75
2021/11/16 03:16:15;;;;;;;25.85;14.63;;;4.70;90.30;;;;;;5002809;28;20407;-74
2021/11/16 03:18:44;;;;;;;24.20;14.43;;;4.70;90.20;;;;;;4998582;28;20149;-74
2021/11/16 03:21:12;;;;;;;27.45;15.63;;;4.80;90.70;;;;;;4993317;28;20121;-73
2021/11/16 03:23:44;;;;;;;28.63;15.77;;;4.80;90.80;;;;;;4999702;28;20029;-74
2021/11/16 03:26:11;;;;;;;26.45;16.80;;;4.80;90.90;;;;;;4998287;28;20030;-74
2021/11/16 03:28:40;;;;;;;31.08;15.77;;;4.70;90.70;;;;;;4994025;28;20387;-73
2021/11/16 03:31:20;;;;;;;27.80;15.35;;;4.70;90.50;;;;;;4995067;28;20029;-73
2021/11/16 03:33:46;;;;;;;22.98;14.95;;;4.80;90.80;;;;;;4998890;28;20037;-74
2021/11/16 03:36:12;;;;;;;29.45;16.08;;;4.80;90.80;;;;;;4980320;28;20042;-74
2021/11/16 03:38:39;;;;;;;30.60;16.70;;;4.70;90.90;;;;;;5001582;28;20862;-74
2021/11/16 03:41:05;;;;;;;28.35;15.30;;;4.80;90.80;;;;;;4999231;28;20472;-74
2021/11/16 03:43:33;;;;;;;26.17;15.27;;;4.80;91.00;;;;;;5000186;28;20121;-74
2021/11/16 03:45:59;;;;;;;28.40;15.60;;;4.80;90.80;;;;;;5000540;28;20598;-74
2021/11/16 03:48:25;;;;;;;27.42;15.23;;;4.80;90.60;;;;;;4995408;28;20425;-74
2021/11/16 03:50:51;;;;;;;29.00;16.33;;;4.80;90.90;;;;;;4994811;28;20117;-74
2021/11/16 03:53:17;;;;;;;26.20;15.00;;;4.70;90.50;;;;;;4996755;28;20152;-74
2021/11/16 03:55:43;;;;;;;31.17;15.82;;;4.70;90.10;;;;;;4998175;28;20038;-74
2021/11/16 03:58:12;;;;;;;25.63;15.23;;;4.70;90.00;;;;;;5001761;28;20395;-74
2021/11/16 04:00:51;;;;;;;27.30;14.55;;;4.70;89.80;;;;;;4998692;28;20104;-74
2021/11/16 04:03:18;;;;;;;29.17;15.93;;;4.70;89.80;;;;;;4992189;28;20104;-74
2021/11/16 04:05:44;;;;;;;26.10;15.45;;;4.80;90.30;;;;;;4999189;28;20061;-74
2021/11/16 04:08:10;;;;;;;25.60;14.98;;;4.70;90.50;;;;;;5000925;28;20030;-74
2021/11/16 04:10:36;;;;;;;27.13;15.27;;;4.70;90.10;;;;;;5001343;28;20102;-73
2021/11/16 04:13:02;;;;;;;26.80;15.68;;;4.70;90.40;;;;;;5004704;28;20104;-74
2021/11/16 04:15:31;;;;;;;29.67;14.68;;;4.70;89.90;;;;;;5002146;28;20234;-74
2021/11/16 04:17:57;;;;;;;30.92;15.82;;;4.70;89.80;;;;;;4999971;28;20503;-74
2021/11/16 04:20:28;;;;;;;29.75;15.75;;;4.70;90.10;;;;;;5002353;28;20061;-74
2021/11/16 04:22:55;;;;;;;27.92;15.98;;;4.70;90.10;;;;;;4996232;28;20486;-74
2021/11/16 04:25:20;;;;;;;26.80;14.85;;;4.70;90.20;;;;;;5003809;28;20027;-74
2021/11/16 04:27:46;;;;;;;28.88;15.63;;;4.70;90.30;;;;;;5004112;28;20083;-75
2021/11/16 04:30:14;;;;;;;28.60;15.32;;;4.70;90.20;;;;;;5001417;28;20325;-74
2021/11/16 04:32:41;;;;;;;26.35;14.65;;;4.70;90.10;;;;;;5004247;28;20097;-74
2021/11/16 04:35:07;;;;;;;32.65;16.77;;;4.70;90.10;;;;;;5003465;28;20026;-74
2021/11/16 04:37:33;;;;;;;27.05;14.55;;;4.70;90.20;;;;;;4974339;28;20345;-74
2021/11/16 04:39:59;;;;;;;24.75;15.38;;;4.70;90.10;;;;;;5017439;28;20018;-74
2021/11/16 04:42:26;;;;;;;26.30;15.20;;;4.70;90.10;;;;;;4999029;28;20450;-74
2021/11/16 04:44:52;;;;;;;28.48;16.27;;;4.70;90.40;;;;;;5001153;28;20112;-74
2021/11/16 04:47:25;;;;;;;30.73;16.48;;;4.70;90.30;;;;;;4993642;28;20120;-74
2021/11/16 04:49:58;;;;;;;30.48;16.23;;;4.70;90.10;;;;;;5016431;28;20045;-74
2021/11/16 04:52:42;;;;;;;28.92;15.85;;;4.70;90.30;;;;;;5001489;28;20037;-74
2021/11/16 04:55:28;;;;;;;32.30;17.40;;;4.70;90.00;;;;;;5007220;28;20033;-74
2021/11/16 05:03:22;;;;;;;29.13;17.10;;;4.70;90.40;;;;;;4998858;28;20079;-74
2021/11/16 05:05:47;;;;;;;32.42;17.42;;;4.70;90.60;;;;;;5004318;28;20038;-74
2021/11/16 05:08:15;;;;;;;27.55;16.05;;;4.70;90.80;;;;;;5001254;28;20040;-74
2021/11/16 05:10:40;;;;;;;31.80;16.58;;;4.70;90.90;;;;;;5002045;28;20067;-74
2021/11/16 05:13:06;;;;;;;30.15;17.30;;;4.70;90.80;;;;;;4999182;28;20414;-74
2021/11/16 05:15:34;;;;;;;31.92;17.33;;;4.70;90.50;;;;;;5000411;28;20056;-73
2021/11/16 05:18:00;;;;;;;25.98;16.13;;;4.60;90.30;;;;;;5017009;28;20030;-74
2021/11/16 05:20:25;;;;;;;28.38;15.35;;;4.60;90.50;;;;;;4996370;28;20105;-75
2021/11/16 05:22:53;;;;;;;29.42;17.17;;;4.60;90.70;;;;;;4997793;28;20618;-75
2021/11/16 05:25:18;;;;;;;33.92;17.27;;;4.60;90.80;;;;;;5000493;28;20052;-75
2021/11/16 05:27:44;;;;;;;34.20;17.17;;;4.60;90.90;;;;;;5015122;28;20440;-75
2021/11/16 05:30:12;;;;;;;28.45;16.25;;;4.60;90.90;;;;;;5001175;28;20038;-75
2021/11/16 05:32:39;;;;;;;28.80;16.58;;;4.60;90.90;;;;;;5001449;28;20057;-75
2021/11/16 05:35:07;;;;;;;33.08;18.88;;;4.70;91.10;;;;;;4998807;28;20044;-75
2021/11/16 05:37:33;;;;;;;33.97;17.98;;;4.70;91.00;;;;;;4983315;28;20045;-75
2021/11/16 05:39:58;;;;;;;32.15;17.92;;;4.60;91.10;;;;;;5003143;28;20045;-75
2021/11/16 05:42:24;;;;;;;31.65;18.80;;;4.70;91.10;;;;;;5004096;28;20026;-75
2021/11/16 05:44:51;;;;;;;30.63;17.25;;;4.70;91.20;;;;;;5000880;28;20021;-75
2021/11/16 05:47:18;;;;;;;31.48;18.27;;;4.70;91.20;;;;;;5000274;28;20626;-75
2021/11/16 05:49:43;;;;;;;35.80;18.58;;;4.70;91.30;;;;;;5001889;28;20098;-75
2021/11/16 05:52:09;;;;;;;36.90;19.45;;;4.60;91.20;;;;;;4999631;28;20457;-74
2021/11/16 05:54:35;;;;;;;29.42;17.95;;;4.70;91.20;;;;;;5006126;28;20029;-75
2021/11/16 05:57:02;;;;;;;35.72;18.42;;;4.60;91.20;;;;;;4999643;28;20119;-75
2021/11/16 05:59:33;;;;;;;33.10;18.85;;;4.70;91.30;;;;;;5001121;28;20026;-75
2021/11/16 06:02:08;;;;;;;30.02;18.00;;;4.60;91.00;;;;;;4995086;28;20029;-74
2021/11/16 06:04:33;;;;;;;37.03;17.98;;;4.60;91.10;;;;;;4997456;28;20042;-74
2021/11/16 06:07:00;;;;;;;35.85;18.52;;;4.60;91.30;;;;;;4998160;28;20422;-75
2021/11/16 06:09:26;;;;;;;30.55;18.23;;;4.60;91.30;;;;;;4996402;28;20112;-74
2021/11/16 06:11:52;;;;;;;35.72;19.38;;;4.60;91.40;;;;;;5001493;28;20081;-74
2021/11/16 06:14:18;;;;;;;27.00;17.67;;;4.60;91.40;;;;;;5003833;28;20025;-76
2021/11/16 06:16:43;;;;;;;35.90;18.92;;;4.60;91.10;;;;;;5000861;28;20080;-75
2021/11/16 06:19:10;;;;;;;37.88;19.45;;;4.60;90.80;;;;;;5000618;28;20113;-76
2021/11/16 06:21:36;;;;;;;32.17;17.65;;;4.60;91.10;;;;;;5001616;28;20132;-74
2021/11/16 06:24:02;;;;;;;34.83;18.48;;;4.60;90.90;;;;;;5003900;28;20026;-76
2021/11/16 06:26:32;;;;;;;31.58;17.60;;;4.60;90.90;;;;;;5002507;28;20097;-74
2021/11/16 06:28:59;;;;;;;32.95;18.20;;;4.60;91.00;;;;;;4999300;28;20395;-75
2021/11/16 06:31:26;;;;;;;31.25;18.27;;;4.60;91.10;;;;;;5000070;28;20081;-75
2021/11/16 06:33:58;;;;;;;31.15;17.98;;;4.60;91.00;;;;;;5001935;28;20032;-75
2021/11/16 06:36:33;;;;;;;31.95;17.70;;;4.60;91.00;;;;;;5003031;28;20061;-76
2021/11/16 06:38:59;;;;;;;34.00;19.25;;;4.60;90.90;;;;;;5002083;28;20109;-76
2021/11/16 06:41:25;;;;;;;39.92;20.10;;;4.60;91.20;;;;;;5000416;28;20386;-75
2021/11/16 06:43:51;;;;;;;39.35;20.40;;;4.60;91.30;;;;;;5000414;28;20026;-75
2021/11/16 06:46:16;;;;;;;34.95;19.67;;;4.60;91.50;;;;;;5003673;28;20041;-76
2021/11/16 06:48:42;;;;;;;39.50;20.80;;;4.60;91.60;;;;;;5002425;28;20495;-75
2021/11/16 06:51:07;;;;;;;37.78;21.35;;;4.60;91.30;;;;;;5002345;28;20072;-75
2021/11/16 06:53:36;;;;;;;39.05;21.08;;;4.60;91.60;;;;;;5000330;28;20025;-76
2021/11/16 06:56:04;;;;;;;37.42;21.30;;;4.60;91.60;;;;;;5001113;28;20121;-75
2021/11/16 06:58:30;;;;;;;43.13;21.75;;;4.60;91.50;;;;;;5000742;28;20105;-76
2021/11/16 07:00:56;;;;;;;35.90;20.77;;;4.60;91.70;;;;;;5002932;28;20069;-77
2021/11/16 07:03:24;;;;;;;34.08;19.52;;;4.60;91.60;;;;;;5004530;28;20076;-76
2021/11/16 07:05:53;;;;;;;35.28;21.13;;;4.60;91.40;;;;;;5001495;28;20060;-76
2021/11/16 07:08:34;;;;;;;32.83;18.98;;;4.60;91.40;;;;;;4999898;28;20026;-75
2021/11/16 07:11:21;;;;;;;35.47;20.50;;;4.60;91.30;;;;;;5001474;28;20444;-79
2021/11/16 07:14:07;;;;;;;35.53;20.38;;;4.60;91.40;;;;;;5000145;28;20582;-75
2021/11/16 07:16:42;;;;;;;36.10;20.70;;;4.60;91.40;;;;;;4996403;28;20121;-75
2021/11/16 07:19:09;;;;;;;35.45;19.35;;;4.60;91.50;;;;;;5001497;28;20030;-75
2021/11/16 07:21:52;;;;;;;32.78;18.20;;;4.60;91.70;;;;;;4996823;28;20277;-75
2021/11/16 07:24:21;;;;;;;33.38;17.90;;;4.60;91.70;;;;;;5001563;28;20119;-75
2021/11/16 07:27:05;;;;;;;31.98;19.23;;;4.60;91.40;;;;;;5002059;28;20049;-75
2021/11/16 07:29:38;;;;;;;37.40;20.33;;;4.60;91.20;;;;;;5000982;28;20053;-75
2021/11/16 07:32:04;;;;;;;34.20;19.27;;;4.60;91.20;;;;;;5000744;28;20042;-77
2021/11/16 07:34:32;;;;;;;37.55;20.27;;;4.60;91.30;;;;;;5002496;28;20045;-76
2021/11/16 07:36:59;;;;;;;34.60;18.58;;;4.60;91.50;;;;;;4999267;28;20080;-77
2021/11/16 07:39:27;;;;;;;33.47;18.60;;;4.60;91.40;;;;;;4999800;28;20372;-76
2021/11/16 07:42:03;;;;;;;33.92;18.25;;;4.60;91.30;;;;;;5003009;28;20034;-75
2021/11/16 07:44:28;;;;;;;40.70;21.38;;;4.60;91.30;;;;;;5002858;28;20382;-75
2021/11/16 07:46:55;;;;;;;41.20;22.33;;;4.60;91.40;;;;;;5005128;28;20049;-75
2021/11/16 07:49:22;;;;;;;40.60;20.45;;;4.70;91.40;;;;;;5001624;28;20091;-75
2021/11/16 07:51:49;;;;;;;36.28;21.02;;;4.70;91.50;;;;;;5006550;28;20029;-74
2021/11/16 07:54:24;;;;;;;35.28;20.73;;;4.70;91.60;;;;;;5007351;28;20096;-75
2021/11/16 07:56:50;;;;;;;37.60;21.60;;;4.70;91.40;;;;;;5003666;28;20067;-75
2021/11/16 07:59:18;;;;;;;40.38;21.70;;;4.70;91.70;;;;;;4999443;28;20477;-75
2021/11/16 08:01:58;;;;;;;35.78;19.35;;;4.70;91.50;;;;;;5005539;28;20029;-74
2021/11/16 08:07:25;;;;;;;42.28;19.60;;;4.60;91.40;;;;;;5006014;28;20049;-75
2021/11/16 08:09:53;;;;;;;37.58;19.98;;;4.60;91.50;;;;;;5006191;28;20489;-75
2021/11/16 08:12:27;;;;;;;38.25;20.33;;;4.60;91.50;;;;;;5006680;28;20348;-74
2021/11/16 08:15:00;;;;;;;38.28;20.55;;;4.60;91.70;;;;;;5004292;28;20390;-74
2021/11/16 08:17:26;;;;;;;39.10;20.55;;;4.70;91.80;;;;;;5004838;28;20322;-74
2021/11/16 08:19:57;;;;;;;39.03;21.25;;;4.70;91.70;;;;;;5003412;28;20432;-75
2021/11/16 08:22:23;;;;;;;34.53;19.67;;;4.70;91.60;;;;;;5004915;28;20476;-75
2021/11/16 08:24:49;;;;;;;40.25;20.80;;;4.70;91.70;;;;;;5004958;28;20091;-74
2021/11/16 08:27:21;;;;;;;36.30;20.63;;;4.70;91.80;;;;;;5003108;28;20072;-75
2021/11/16 08:29:51;;;;;;;41.10;21.77;;;4.70;91.90;;;;;;5002796;28;20026;-75
2021/11/16 08:32:22;;;;;;;35.10;21.37;;;4.80;92.20;;;;;;5003664;28;20095;-76
2021/11/16 08:34:55;;;;;;;38.22;21.15;;;4.70;91.90;;;;;;5004872;28;20104;-76
2021/11/16 08:37:24;;;;;;;35.78;20.27;;;4.70;91.80;;;;;;5000187;28;20091;-77
2021/11/16 08:39:56;;;;;;;40.65;20.60;;;4.60;91.90;;;;;;5006611;28;20037;-76
2021/11/16 08:42:29;;;;;;;36.38;19.45;;;4.60;91.90;;;;;;5020852;28;20296;-77
2021/11/16 08:45:05;;;;;;;41.20;21.75;;;4.70;92.00;;;;;;5004260;28;20058;-76
2021/11/16 08:47:37;;;;;;;43.80;22.30;;;4.70;92.20;;;;;;5005093;28;20072;-76
2021/11/16 08:50:28;;;;;;;39.25;20.73;;;4.60;92.10;;;;;;5002185;28;20196;-76
2021/11/16 08:52:55;;;;;;;40.78;22.02;;;4.70;92.20;;;;;;5000801;28;20152;-76
2021/11/16 08:55:23;;;;;;;45.80;21.42;;;4.60;92.10;;;;;;5000918;28;20080;-76
2021/11/16 08:57:50;;;;;;;38.47;20.40;;;4.70;92.40;;;;;;5006330;28;20022;-76
2021/11/16 09:00:20;;;;;;;40.20;21.27;;;4.70;92.50;;;;;;5005199;28;20173;-76
2021/11/16 09:02:47;;;;;;;43.93;21.50;;;4.60;92.40;;;;;;5001223;28;20402;-75
2021/11/16 09:05:16;;;;;;;40.55;21.75;;;4.60;92.50;;;;;;5005674;28;20025;-75
2021/11/16 09:07:54;;;;;;;41.88;22.33;;;4.70;92.70;;;;;;5005053;28;20478;-76
2021/11/16 09:10:20;;;;;;;43.63;22.35;;;4.70;92.60;;;;;;5004620;28;20140;-75
2021/11/16 09:12:52;;;;;;;46.13;22.73;;;4.80;92.70;;;;;;5003925;28;20116;-76
2021/11/16 09:15:31;;;;;;;45.90;22.92;;;4.80;92.60;;;;;;5003519;28;20037;-76
2021/11/16 09:18:30;;;;;;;48.90;22.30;;;4.90;92.50;;;;;;5004159;28;20361;-75
2021/11/16 09:21:14;;;;;;;47.60;23.40;;;4.80;92.30;;;;;;5002321;28;20049;-76
2021/11/16 09:24:10;;;;;;;39.72;21.00;;;4.90;92.40;;;;;;5017641;28;20368;-76
2021/11/16 09:26:56;;;;;;;43.45;20.98;;;4.80;92.40;;;;;;4999470;28;20033;-76
2021/11/16 09:29:25;;;;;;;42.47;22.23;;;4.80;92.30;;;;;;5005068;28;20026;-76
2021/11/16 09:31:55;;;;;;;45.65;21.42;;;4.80;92.30;;;;;;5003476;28;20456;-76
2021/11/16 09:34:27;;;;;;;47.63;23.00;;;4.90;92.30;;;;;;5000091;28;20018;-76
2021/11/16 09:36:58;;;;;;;43.65;22.30;;;4.80;92.60;;;;;;5000401;28;20034;-76
2021/11/16 09:39:30;;;;;;;;;;;4.80;92.70;;;;;;5006639;28;20136;-77
2021/11/16 09:42:02;;;;;;;41.92;20.15;;;4.80;92.80;;;;;;5000618;28;19955;-75
2021/11/16 09:44:33;;;;;;;37.47;20.45;;;4.70;92.80;;;;;;5005471;28;20029;-76
2021/11/16 09:47:08;;;;;;;48.30;23.15;;;4.70;92.80;;;;;;5003697;28;20052;-76
2021/11/16 09:50:03;;;;;;;43.22;21.60;;;4.70;92.80;;;;;;5001689;28;20529;-76
2021/11/16 09:52:32;;;;;;;39.80;20.67;;;4.60;92.90;;;;;;4996612;28;20074;-77
2021/11/16 09:55:07;;;;;;;44.05;22.17;;;4.70;93.20;;;;;;5001808;28;20459;-75
2021/11/16 09:57:38;;;;;;;40.55;20.83;;;4.70;92.90;;;;;;5001887;28;20105;-76
2021/11/16 10:00:26;;;;;;;42.35;21.77;;;4.70;92.90;;;;;;5002154;28;20513;-76
2021/11/16 10:03:03;;;;;;;45.53;22.10;;;4.70;93.10;;;;;;5004647;28;20083;-76
2021/11/16 10:05:31;;;;;;;40.55;22.33;;;4.70;93.40;;;;;;5003521;28;20398;-76
2021/11/16 10:08:03;;;;;;;47.85;22.77;;;4.70;93.20;;;;;;5002406;28;20116;-76
2021/11/16 10:10:32;;;;;;;43.63;22.25;;;4.80;93.30;;;;;;5002922;28;20075;-76
2021/11/16 10:13:01;;;;;;;45.17;23.75;;;4.70;93.00;;;;;;5004434;28;20030;-76
2021/11/16 10:15:31;;;;;;;46.17;22.95;;;4.70;93.10;;;;;;5003240;28;20032;-75
2021/11/16 10:17:57;;;;;;;45.88;23.80;;;4.70;93.20;;;;;;5000945;28;20086;-75
2021/11/16 10:20:29;;;;;;;49.95;23.65;;;4.80;93.20;;;;;;5002461;28;20140;-75
2021/11/16 10:22:58;;;;;;;49.80;23.63;;;4.80;93.20;;;;;;5001913;28;20779;-76
2021/11/16 10:25:27;;;;;;;48.10;23.75;;;4.80;93.20;;;;;;5001755;28;20296;-76
2021/11/16 10:27:54;;;;;;;45.25;24.00;;;4.80;93.30;;;;;;5000425;28;20470;-75
2021/11/16 10:30:29;;;;;;;46.78;23.77;;;4.80;93.30;;;;;;5006244;28;20100;-75
2021/11/16 10:33:22;;;;;;;50.60;23.55;;;4.80;93.20;;;;;;5003008;28;20109;-76
2021/11/16 10:35:55;;;;;;;46.97;23.00;;;4.80;93.40;;;;;;5011021;28;20026;-75
2021/11/16 10:38:36;;;;;;;47.00;23.13;;;4.90;93.60;;;;;;5004096;28;20452;-76
2021/11/16 10:41:17;;;;;;;45.53;23.73;;;4.80;93.40;;;;;;5002043;28;20030;-76
2021/11/16 10:43:51;;;;;;;;;;;4.90;93.50;;;;;;5002689;28;20088;-75
2021/11/16 10:46:19;;;;;;;47.20;23.98;;;4.80;93.50;;;;;;5004734;28;20203;-75
2021/11/16 10:48:46;;;;;;;52.83;24.77;;;4.80;93.70;;;;;;4999832;28;20118;-76
2021/11/16 10:51:13;;;;;;;48.22;23.52;;;4.80;93.60;;;;;;5000923;28;20038;-76
2021/11/16 10:53:45;;;;;;;43.58;22.83;;;4.70;93.30;;;;;;5002534;28;20041;-76
2021/11/16 10:56:14;;;;;;;49.53;22.40;;;4.70;93.40;;;;;;5004051;28;20062;-76
2021/11/16 10:58:41;;;;;;;44.00;22.80;;;4.70;93.70;;;;;;5004849;28;20025;-76
2021/11/16 11:01:10;;;;;;;46.30;22.13;;;4.70;93.70;;;;;;5004875;28;20041;-76
2021/11/16 11:03:39;;;;;;;45.92;22.15;;;4.70;93.70;;;;;;5004927;28;20461;-76
2021/11/16 11:06:15;;;;;;;45.13;22.70;;;4.70;93.60;;;;;;5004740;28;20132;-75
2021/11/16 11:08:50;;;;;;;42.78;21.80;;;4.70;93.50;;;;;;4996367;28;20460;-76
2021/11/16 11:11:25;;;;;;;44.05;21.33;;;4.70;93.40;;;;;;5000019;28;20426;-74
2021/11/16 11:14:00;;;;;;;45.70;21.23;;;4.80;93.60;;;;;;5004687;28;20031;-75
2021/11/16 11:16:27;;;;;;;47.65;22.67;;;4.80;93.40;;;;;;4998218;28;20061;-76
2021/11/16 11:18:54;;;;;;;44.08;21.08;;;4.70;93.20;;;;;;5003195;28;20498;-76
2021/11/16 11:21:49;;;;;;;42.03;20.95;;;4.70;93.70;;;;;;5003281;28;20033;-76
2021/11/16 11:24:20;;;;;;;45.60;21.05;;;4.70;94.10;;;;;;4998850;28;20077;-76
2021/11/16 11:26:55;;;;;;;45.80;22.15;;;4.80;94.00;;;;;;5000998;28;20057;-76
2021/11/16 11:29:28;;;;;;;45.78;22.73;;;4.80;94.00;;;;;;5002379;28;20045;-76
2021/11/16 11:32:09;;;;;;;47.17;21.92;;;4.80;93.90;;;;;;5001638;28;20494;-74
2021/11/16 11:34:40;;;;;;;44.70;21.92;;;4.80;93.90;;;;;;4999784;28;20033;-76
2021/11/16 11:37:14;;;;;;;44.75;21.40;;;4.90;93.90;;;;;;5001190;28;20033;-76
2021/11/16 11:39:40;;;;;;;40.00;20.92;;;4.80;93.80;;;;;;5002324;28;20038;-76
2021/11/16 11:42:12;;;;;;;46.35;22.73;;;4.80;94.00;;;;;;5000115;28;20029;-77
2021/11/16 11:44:42;;;;;;;47.85;22.13;;;4.70;94.30;;;;;;5001466;28;20033;-75
2021/11/16 11:47:08;;;;;;;47.00;22.45;;;4.80;94.50;;;;;;5003502;28;20129;-75
2021/11/16 11:49:34;;;;;;;50.85;22.88;;;4.80;94.40;;;;;;5005045;28;20048;-75
2021/11/16 11:52:03;;;;;;;48.47;22.10;;;4.80;94.40;;;;;;5003585;28;20187;-75
2021/11/16 11:54:29;;;;;;;45.72;22.73;;;4.80;94.70;;;;;;5003277;28;20049;-75
2021/11/16 11:56:55;;;;;;;41.58;21.35;;;4.80;94.70;;;;;;5001179;28;20181;-74
2021/11/16 11:59:24;;;;;;;44.88;21.50;;;4.80;94.60;;;;;;5001457;28;20151;-74
2021/11/16 12:01:50;;;;;;;46.58;21.80;;;4.80;94.60;;;;;;5001103;28;20352;-75
2021/11/16 12:04:18;;;;;;;46.67;21.35;;;4.80;94.40;;;;;;5001747;28;20066;-75
2021/11/16 12:06:46;;;;;;;46.42;22.88;;;4.80;94.40;;;;;;4997359;28;20026;-75
2021/11/16 12:09:13;;;;;;;47.72;23.08;;;4.80;94.60;;;;;;5002012;28;20455;-74
2021/11/16 12:11:38;;;;;;;45.28;20.85;;;4.80;94.60;;;;;;5002506;28;20037;-74
2021/11/16 12:14:13;;;;;;;44.97;20.75;;;4.80;94.80;;;;;;5000668;28;20026;-75
2021/11/16 12:16:53;;;;;;;37.10;20.52;;;4.70;94.60;;;;;;5003191;28;20034;-75
2021/11/16 12:19:19;;;;;;;41.95;20.05;;;4.80;94.80;;;;;;5002757;28;20030;-75
2021/11/16 12:21:47;;;;;;;42.05;20.98;;;4.70;94.50;;;;;;5001617;28;20388;-75
2021/11/16 12:24:33;;;;;;;41.25;21.13;;;4.80;94.60;;;;;;4999757;28;20053;-75
2021/11/16 12:27:04;;;;;;;42.55;20.58;;;4.80;94.70;;;;;;5015631;28;20049;-74
2021/11/16 12:29:34;;;;;;;42.28;20.88;;;4.80;94.70;;;;;;5003487;28;20026;-74
2021/11/16 12:32:23;;;;;;;43.40;21.13;;;4.80;95.00;;;;;;4999228;28;20121;-75
2021/11/16 12:34:53;;;;;;;47.08;20.98;;;4.70;94.80;;;;;;5003489;28;20503;-74
2021/11/16 12:37:36;;;;;;;44.85;20.30;;;4.80;94.90;;;;;;5006156;28;20324;-74
2021/11/16 12:40:07;;;;;;;43.20;19.58;;;4.70;94.70;;;;;;5005325;28;20041;-74
2021/11/16 12:42:32;;;;;;;40.95;19.00;;;4.70;94.90;;;;;;5004681;28;20516;-75
2021/11/16 12:44:59;;;;;;;38.45;19.55;;;4.70;94.90;;;;;;5005992;28;20101;-75
2021/11/16 12:47:31;;;;;;;35.15;19.05;;;4.80;95.00;;;;;;5005530;28;20080;-74
2021/11/16 12:50:14;;;;;;;37.90;18.50;;;4.80;95.10;;;;;;5005652;28;20060;-74
2021/11/16 12:52:47;;;;;;;40.08;18.13;;;4.80;95.00;;;;;;5003507;28;20030;-76
2021/11/16 12:55:21;;;;;;;35.75;18.20;;;4.70;94.80;;;;;;5003700;28;20021;-75
2021/11/16 12:57:49;;;;;;;35.88;17.48;;;4.70;94.60;;;;;;5004755;28;20190;-75
2021/11/16 13:00:15;;;;;;;34.53;17.55;;;4.70;94.70;;;;;;5002720;28;20030;-75